Bucketlist — WDG2966 — position and weather

sailwx.info

Track history (hours):
 
Tides and Currents Weather Stations Pressure Air Temp Water Temp Dewpoint Dewpoint Depression Visibility Wind Speed Wind Dir Waves Ship Positions

Bucketlist

Owner: Fulginiti, Linda M, Jasper, OR. More information available from US FCC via Universal Licensing System and Coast Guard Vessel Documentation Center.

Last reported at 2017-Nov-11 19:44 UTC. Time now 2017-Dec-11 00:38 UTC.
Position N 47°56' W 122°33'.
Warning: this ship's position is 29 days out of date.

Length 10 m.

Type: Pleasure craft. MMSI: 367521080.

Date/timePositionNaut miles runAvg speedWind from/ knotsBaromVisibWave heightAir tempDewpointWater temp
2017-Nov-11 19:44N 47°56' W 122°33'2 7.8
2017-Nov-11 19:30N 47°55' W 122°31'4 9.0
2017-Nov-11 19:00N 47°51' W 122°27'4 7.0
2017-Nov-11 18:29N 47°48' W 122°24'0 0.0
2017-Nov-11 17:59N 47°48' W 122°24'0 0.0
2017-Nov-11 17:29N 47°48' W 122°24'0 0.0
2017-Nov-11 16:59N 47°48' W 122°24'0 0.0
2017-Nov-11 16:23N 47°48' W 122°24'0 0.0
2017-Nov-11 15:59N 47°48' W 122°24'0 0.0
2017-Nov-11 15:29N 47°48' W 122°24'0 0.0
2017-Nov-11 14:59N 47°48' W 122°24'0 0.0
2017-Nov-11 14:29N 47°48' W 122°24'0 0.0
2017-Nov-11 13:59N 47°48' W 122°24'0 0.0
2017-Nov-11 13:29N 47°48' W 122°24'0 0.0
2017-Nov-11 12:59N 47°48' W 122°24'0 0.0
2017-Nov-11 12:29N 47°48' W 122°24'0 0.0
2017-Nov-11 11:59N 47°48' W 122°24'0 0.0
2017-Nov-11 11:29N 47°48' W 122°24'0 0.0
2017-Nov-11 10:59N 47°48' W 122°24'0 0.0
2017-Nov-11 10:29N 47°48' W 122°24'0 0.0
2017-Nov-11 09:59N 47°48' W 122°24'0 0.0
2017-Nov-11 09:29N 47°48' W 122°24'0 0.0
2017-Nov-11 08:59N 47°48' W 122°24'0 0.0
2017-Nov-11 08:29N 47°48' W 122°24'0 0.0
2017-Nov-11 08:00N 47°48' W 122°24'0 0.0
2017-Nov-11 07:29N 47°48' W 122°24'0 0.0
2017-Nov-11 07:00N 47°48' W 122°24'0 0.0
2017-Nov-11 06:30N 47°48' W 122°24'0 0.0
2017-Nov-11 06:00N 47°48' W 122°24'0 0.0
2017-Nov-11 05:30N 47°48' W 122°24'0 0.0
2017-Nov-11 05:00N 47°48' W 122°24'0 0.0
2017-Nov-11 04:30N 47°48' W 122°24'0 0.0
2017-Nov-11 03:59N 47°48' W 122°24'0 0.0
2017-Nov-11 03:29N 47°48' W 122°24'0 0.0
2017-Nov-11 02:59N 47°48' W 122°24'0 0.0
2017-Nov-11 02:29N 47°48' W 122°24'0 0.0
2017-Nov-11 01:59N 47°48' W 122°24'0 0.0
2017-Nov-11 01:29N 47°48' W 122°24'0 0.0
2017-Nov-11 00:59N 47°48' W 122°24'0 0.0
2017-Nov-11 00:29N 47°48' W 122°24'0 0.0
2017-Nov-10 23:59N 47°48' W 122°24'0 0.0
2017-Nov-10 23:29N 47°48' W 122°24'0 0.0
2017-Nov-10 22:59N 47°48' W 122°24'3 5.4
2017-Nov-10 22:30N 47°50' W 122°26'4 7.8
2017-Nov-10 22:00N 47°54' W 122°30'4 7.6
2017-Nov-10 21:29N 47°56' W 122°34'  
Track history (hours):
 
Tides and Currents Weather Stations Pressure Air Temp Water Temp Dewpoint Dewpoint Depression Visibility Wind Speed Wind Dir Waves Ship Positions

Bucketlist

Owner: Fulginiti, Linda M, Jasper, OR. More information available from US FCC via Universal Licensing System and Coast Guard Vessel Documentation Center.

Last reported at 2017-Nov-11 19:44 UTC. Time now 2017-Dec-11 00:38 UTC.
Position N 47°56' W 122°33'.
Warning: this ship's position is 29 days out of date.

Length 10 m.

Type: Pleasure craft. MMSI: 367521080.

Date/timePositionNaut miles runAvg speedWind from/ knotsBaromVisibWave heightAir tempDewpointWater temp
2017-Nov-11 19:44N 47°56' W 122°33'2 7.8
2017-Nov-11 19:30N 47°55' W 122°31'4 9.0
2017-Nov-11 19:00N 47°51' W 122°27'4 7.0
2017-Nov-11 18:29N 47°48' W 122°24'0 0.0
2017-Nov-11 17:59N 47°48' W 122°24'0 0.0
2017-Nov-11 17:29N 47°48' W 122°24'0 0.0
2017-Nov-11 16:59N 47°48' W 122°24'0 0.0
2017-Nov-11 16:23N 47°48' W 122°24'0 0.0
2017-Nov-11 15:59N 47°48' W 122°24'0 0.0
2017-Nov-11 15:29N 47°48' W 122°24'0 0.0
2017-Nov-11 14:59N 47°48' W 122°24'0 0.0
2017-Nov-11 14:29N 47°48' W 122°24'0 0.0
2017-Nov-11 13:59N 47°48' W 122°24'0 0.0
2017-Nov-11 13:29N 47°48' W 122°24'0 0.0
2017-Nov-11 12:59N 47°48' W 122°24'0 0.0
2017-Nov-11 12:29N 47°48' W 122°24'0 0.0
2017-Nov-11 11:59N 47°48' W 122°24'0 0.0
2017-Nov-11 11:29N 47°48' W 122°24'0 0.0
2017-Nov-11 10:59N 47°48' W 122°24'0 0.0
2017-Nov-11 10:29N 47°48' W 122°24'0 0.0
2017-Nov-11 09:59N 47°48' W 122°24'0 0.0
2017-Nov-11 09:29N 47°48' W 122°24'0 0.0
2017-Nov-11 08:59N 47°48' W 122°24'0 0.0
2017-Nov-11 08:29N 47°48' W 122°24'0 0.0
2017-Nov-11 08:00N 47°48' W 122°24'0 0.0
2017-Nov-11 07:29N 47°48' W 122°24'0 0.0
2017-Nov-11 07:00N 47°48' W 122°24'0 0.0
2017-Nov-11 06:30N 47°48' W 122°24'0 0.0
2017-Nov-11 06:00N 47°48' W 122°24'0 0.0
2017-Nov-11 05:30N 47°48' W 122°24'0 0.0
2017-Nov-11 05:00N 47°48' W 122°24'0 0.0
2017-Nov-11 04:30N 47°48' W 122°24'0 0.0
2017-Nov-11 03:59N 47°48' W 122°24'0 0.0
2017-Nov-11 03:29N 47°48' W 122°24'0 0.0
2017-Nov-11 02:59N 47°48' W 122°24'0 0.0
2017-Nov-11 02:29N 47°48' W 122°24'0 0.0
2017-Nov-11 01:59N 47°48' W 122°24'0 0.0
2017-Nov-11 01:29N 47°48' W 122°24'0 0.0
2017-Nov-11 00:59N 47°48' W 122°24'0 0.0
2017-Nov-11 00:29N 47°48' W 122°24'0 0.0
2017-Nov-10 23:59N 47°48' W 122°24'0 0.0
2017-Nov-10 23:29N 47°48' W 122°24'0 0.0
2017-Nov-10 22:59N 47°48' W 122°24'3 5.4
2017-Nov-10 22:30N 47°50' W 122°26'4 7.8
2017-Nov-10 22:00N 47°54' W 122°30'4 7.6
2017-Nov-10 21:29N 47°56' W 122°34'  

Dump ship's entire track history